Thomasboro, Illinois
Current Conditions -  °F | °C
As of 10:35 AM on Monday 26 Jan 2015 (Local Time) from KTIP Reporting Station
Overcast Overcast  
Wind Chill: 21°   Ceiling: 1200
Heat Index: 28°   Visibility: 10mi
Dew Point: 23°   Wind: 6mph
Humidity: 82%   Direction: 260°W
Pressure: 29.96"   Gusts: NA
Location:  40.24°N, 88.18°W
Report Text: KTIP 261635Z AUTO 26005KT 10SM OVC012 M02/M05 A2996 RMK AO2 T10251052
Loading
Personal Weather Stations






























Interactive Weather Map New forecast layout! Learn more

10-Day Weather Forecast

Advertisements
Track Severe Weather on mobile